Five Points, AL (36855)

4:45 PM CDT on July 30, 2016 (GMT -0500)
APRSWXNET | | Change Station

Elev 918 ft 33.02 °N, 85.35 °W | Updated 50 minutes ago

Overcast
Overcast
76 °F
Feels Like 77 °F
N
6
Wind Variable Wind from NNW
Gusts 22.0 mph

Today
High -- | Low -- °F
--% Chance of Precip.
Yesterday
High -- | Low -- °F
Precip. -- in
Pressure 30.06 in
Visibility 1.5 miles
Clouds Mostly Cloudy 1900 ft
Mostly Cloudy 4300 ft
Overcast 9000 ft
Heat Index 77 °F
Dew Point 69 °F
Humidity 79%
Rainfall in
Snow Depth Not available.
5:53 AM 7:41 PM
Waning Crescent, 11% visible
METAR KLGC 302135Z AUTO 33003G17KT 1 1/2SM +TSRA BKN019 BKN043 OVC090 25/25 A3006 RMK AO2 VIS 3/4V4 LTG DSNT ALQS T02480248
Pressure 30.06 in
Visibility 1.5 miles
Clouds Mostly Cloudy 1900 ft
Mostly Cloudy 4300 ft
Overcast 9000 ft
Heat Index 77 °F
Dew Point 69 °F
Humidity 79%
Rainfall in
Snow Depth Not available.
5:53 AM 7:41 PM
Waning Crescent, 11% visible
METAR KLGC 302135Z AUTO 33003G17KT 1 1/2SM +TSRA BKN019 BKN043 OVC090 25/25 A3006 RMK AO2 VIS 3/4V4 LTG DSNT ALQS T02480248

10-Day Weather Forecast

Almanac

Astronomy

Jul. 30, 2016 Rise Set
Actual Time
Civil Twilight
Nautical Twilight
Astronomical Twilight
Moon
Length of Visible Light
Length of Day
Tomorrow will be .
, % of the Moon is Illuminated

Today's Extremes

State Highs State Lows

Community

WunderPhotos

Upload Photos

1,928,657 photos uploaded!

WunderBlog® & News

Nearby

Air Quality

  Air Quality AQ Index Pollutant
Not available.

Snow Depth

Station Depth Elevation

Earthquake Activity

City Distance Mag. Time & Date
Minimum magnitude displayed is 2.5.

Coastal Water Temperatures

Place Temperature

Stations

Nearby Weather Stations

Station Location Temp. Windchill Dew Point Humidity Wind Precip. Elev Updated Type
                   

Watches & Warnings

There are currently no watches in effect.